Terminal Aerodrome Forecast
Issued by NWS

Home | Current Version | Previous Version | Text Only | Print | Product List | Glossary On
Versions: 1 2 3 4 5 6 7 8 9 10 11 12 13 14
000
FTUS41 KCAR 021720
TAFFVE
TAF
KFVE 021720Z 0218/0318 28008KT P6SM VCTS BKN035CB
     FM022100 29009KT P6SM VCTS BKN060CB
     FM022200 29008KT P6SM BKN120
     FM030300 30006KT P6SM SCT250
     FM031400 34010G18KT P6SM FEW250=

USA.gov is the U.S. government's official web portal to all federal, state and local government web resources and services.